LPHR/HOR METAR and TAF weather

Enter ICAO airport designator
Station Type Date Time Source
LPHR METAR 2018/12/10 12:30 UTC NOAA

LPHR 101230Z 22021KT 200V260 4000 SHRA FEW008 BKN012 BKN025 18/17 Q1019


Station Type Date Time Source
LPHR Decoded METAR 2018/12/10 12:30 UTC NOAA

Horta / Castelo Branco Acores , Portugal (LPHR) 38-31N 028-43W 41M
Dec 10, 2018 - 07:30 AM EST / 2018.12.10 1230 UTC
Wind: from the SW (220 degrees) at 24 MPH (21 KT) (direction variable):0
Visibility: 2 mile(s):0
Sky conditions: mostly cloudy
Weather: rain showers
Temperature: 64 F (18 C)
Dew Point: 62 F (17 C)
Relative Humidity: 93%
Pressure (altimeter): 30.09 in. Hg (1019 hPa)
ob: LPHR 101230Z 22021KT 200V260 4000 SHRA FEW008 BKN012 BKN025 18/17 Q1019
cycle: 12

Station Type Date Time Source
LPHR TAF 2018/09/06 09:00 UTC NOAA

TAF LPHR 060800Z 0609/0618 12010KT 9999 SCT018 SCT040 PROB30
TEMPO 0609/0618 5000 SHRA BKN015 FEW018CB
BECMG 0610/0612 18010KT


Example: see airport list